Blythe, Georgia
Current Conditions -  °F | °C
As of 9:53 PM on Saturday 20 Dec 2014 (Local Time) from KAGS Reporting Station
Haze Haze  
Wind Chill: 45°   Ceiling: 700
Heat Index: 48°   Visibility: 6mi
Dew Point: 46°   Wind: 7mph
Humidity: 93%   Direction: 80°E
Pressure: 30.23"   Gusts: NA
Location:  33.29°N, 82.2°W
Report Text: KAGS 210253Z 08006KT 6SM BR OVC007 09/08 A3023 RMK AO2 SLP237 T00890078 51008
Loading
Personal Weather Stations






























Interactive Weather Map New forecast layout! Learn more

10-Day Weather Forecast

Advertisements
Track Severe Weather on mobile